Mc Andrews, Kentucky
Current Conditions -  °F | °C
As of 2:55 PM on Sunday 21 Dec 2014 (Local Time) from KPBX Reporting Station
Clear Clear  
Wind Chill: 43°   Ceiling: Unl
Heat Index: 43°   Visibility: 10mi
Dew Point: 27°   Wind: 3mph
Humidity: 54%   Direction: 140°SE
Pressure: 30.16"   Gusts: NA
Location:  37.5713°N, 82.2677°W
Report Text: KPBX 211955Z AUTO 14003KT 10SM CLR 06/M03 A3016 RMK AO2 T00611026
Loading
Personal Weather Stations






























Interactive Weather Map New forecast layout! Learn more

10-Day Weather Forecast

Advertisements
Track Severe Weather on mobile